createdAt,value
2022-11-03T00:00:12.774Z,88.53
2022-11-03T00:01:16.870Z,88.65
2022-11-03T00:02:19.668Z,88.86
2022-11-03T00:03:23.461Z,88.62
2022-11-03T00:04:26.122Z,88.32
2022-11-03T00:05:46.878Z,88.93
2022-11-03T00:06:51.599Z,88.67
2022-11-03T00:07:54.184Z,88.44
2022-11-03T00:08:59.789Z,88.63
2022-11-03T00:10:02.361Z,88.75
2022-11-03T00:11:11.637Z,88.58
2022-11-03T00:12:14.362Z,88.56
2022-11-03T00:13:18.020Z,88.81
2022-11-03T00:14:23.179Z,88.88
2022-11-03T00:15:25.768Z,88.90
2022-11-03T00:16:29.449Z,88.54
2022-11-03T00:17:32.042Z,88.77
2022-11-03T00:18:35.989Z,88.60
2022-11-03T00:19:38.611Z,89.01
2022-11-03T00:20:42.303Z,89.54
2022-11-03T00:21:46.741Z,89.04
2022-11-03T00:22:49.343Z,88.93
2022-11-03T00:23:53.524Z,88.75
2022-11-03T00:24:56.241Z,88.78
2022-11-03T00:26:10.479Z,88.44
2022-11-03T00:27:13.110Z,88.68
2022-11-03T00:28:16.699Z,88.45
2022-11-03T00:29:19.327Z,88.25
2022-11-03T00:30:24.413Z,87.72
2022-11-03T00:31:28.384Z,87.73
2022-11-03T00:32:32.102Z,88.24
2022-11-03T00:33:34.918Z,87.98
2022-11-03T00:34:38.573Z,87.58
2022-11-03T00:35:41.210Z,87.87
2022-11-03T00:36:45.880Z,87.67
2022-11-03T00:37:48.589Z,87.68
2022-11-03T00:38:52.785Z,87.28
2022-11-03T00:39:55.411Z,87.52
2022-11-03T00:41:00.351Z,87.10
2022-11-03T00:42:02.973Z,87.33
2022-11-03T00:43:07.106Z,87.33
2022-11-03T00:44:11.173Z,87.74
2022-11-03T00:45:14.849Z,87.82
2022-11-03T00:46:19.655Z,87.55
2022-11-03T00:47:24.373Z,87.27
2022-11-03T00:48:29.991Z,87.49
2022-11-03T00:49:33.743Z,87.47
2022-11-03T00:50:36.352Z,87.23
2022-11-03T00:51:39.929Z,88.02
2022-11-03T00:52:42.551Z,87.58
2022-11-03T00:53:47.773Z,87.59
2022-11-03T00:54:54.325Z,88.02
2022-11-03T00:55:59.232Z,87.93
2022-11-03T00:57:01.821Z,88.05
2022-11-03T00:58:05.570Z,88.13
2022-11-03T00:59:09.342Z,88.37
2022-11-03T01:00:14.122Z,87.90
2022-11-03T01:01:19.928Z,88.29
2022-11-03T01:02:23.778Z,87.86
2022-11-03T01:03:26.578Z,88.05
2022-11-03T01:04:47.535Z,87.60
2022-11-03T01:06:08.618Z,87.88
2022-11-03T01:07:12.270Z,87.83
2022-11-03T01:08:14.940Z,88.21
2022-11-03T01:09:19.560Z,87.92
2022-11-03T01:10:22.240Z,88.23
2022-11-03T01:11:43.691Z,87.47
2022-11-03T01:12:47.443Z,87.83
2022-11-03T01:13:50.161Z,87.87
2022-11-03T01:14:54.983Z,88.02
2022-11-03T01:15:58.876Z,88.54
2022-11-03T01:17:04.283Z,88.18
2022-11-03T01:18:06.882Z,87.80
2022-11-03T01:19:10.691Z,87.90
2022-11-03T01:20:13.311Z,88.32
2022-11-03T01:21:17.141Z,88.13
2022-11-03T01:22:21.766Z,88.25
2022-11-03T01:23:24.653Z,88.27
2022-11-03T01:24:28.552Z,88.00
2022-11-03T01:25:31.740Z,87.98
2022-11-03T01:26:35.380Z,87.77
2022-11-03T01:27:38.022Z,88.04
2022-11-03T01:28:43.061Z,87.71
2022-11-03T01:29:45.831Z,87.72
2022-11-03T01:30:49.493Z,87.72
2022-11-03T01:31:53.291Z,87.39
2022-11-03T01:32:57.322Z,87.68
2022-11-03T01:34:01.024Z,87.74
2022-11-03T01:35:04.101Z,87.59
2022-11-03T01:36:08.392Z,87.53
2022-11-03T01:37:10.960Z,87.36
2022-11-03T01:38:14.644Z,87.79
2022-11-03T01:39:18.572Z,87.25
2022-11-03T01:40:22.353Z,87.46
2022-11-03T01:41:26.503Z,86.97
2022-11-03T01:42:30.180Z,87.07
2022-11-03T01:43:32.943Z,87.33
2022-11-03T01:44:38.408Z,87.25
2022-11-03T01:45:41.134Z,87.39
2022-11-03T01:46:50.029Z,87.20
2022-11-03T01:47:53.723Z,86.97
2022-11-03T01:49:01.344Z,86.89
2022-11-03T01:50:07.601Z,87.06
2022-11-03T01:51:11.573Z,87.55
2022-11-03T01:52:19.943Z,87.31
2022-11-03T01:53:23.070Z,87.56
2022-11-03T01:54:28.338Z,87.46
2022-11-03T01:55:33.012Z,87.24
2022-11-03T01:56:38.640Z,87.45
2022-11-03T01:57:44.083Z,87.43
2022-11-03T01:58:49.582Z,87.07
2022-11-03T01:59:52.630Z,87.36
2022-11-03T02:01:03.320Z,87.24
2022-11-03T02:02:06.344Z,87.33
2022-11-03T02:03:10.423Z,86.89
2022-11-03T02:04:17.743Z,86.74
2022-11-03T02:05:24.240Z,86.85
2022-11-03T02:06:28.242Z,87.15
2022-11-03T02:07:36.763Z,86.76
2022-11-03T02:08:44.538Z,86.87
2022-11-03T02:09:48.229Z,86.97
2022-11-03T02:10:51.566Z,86.90
2022-11-03T02:12:10.102Z,87.35
2022-11-03T02:13:17.081Z,87.40
2022-11-03T02:14:21.049Z,87.02
2022-11-03T02:15:24.130Z,87.55
2022-11-03T02:16:29.012Z,87.33
2022-11-03T02:17:33.689Z,87.22
2022-11-03T02:18:37.338Z,87.67
2022-11-03T02:19:43.810Z,87.61
2022-11-03T02:20:48.219Z,87.66
2022-11-03T02:21:58.741Z,87.66
2022-11-03T02:23:19.171Z,87.33
2022-11-03T02:24:26.717Z,87.58
2022-11-03T02:25:39.083Z,87.57
2022-11-03T02:26:42.622Z,87.53
2022-11-03T02:27:46.719Z,87.61
2022-11-03T02:28:50.769Z,87.49
2022-11-03T02:29:53.663Z,87.82
2022-11-03T02:31:05.471Z,87.53
2022-11-03T02:32:12.463Z,87.46
2022-11-03T02:33:25.611Z,87.74
2022-11-03T02:34:32.681Z,88.01
2022-11-03T02:35:42.139Z,87.77
2022-11-03T02:36:48.833Z,88.00
2022-11-03T02:37:55.960Z,87.67
2022-11-03T02:39:01.250Z,87.72
2022-11-03T02:40:06.713Z,87.80
2022-11-03T02:41:12.641Z,87.53
2022-11-03T02:42:16.234Z,87.34
2022-11-03T02:43:20.420Z,87.25
2022-11-03T02:44:25.717Z,87.47
2022-11-03T02:45:28.859Z,87.29
2022-11-03T02:46:33.500Z,87.60
2022-11-03T02:47:37.877Z,87.68
2022-11-03T02:48:41.808Z,87.58
2022-11-03T02:49:47.949Z,87.38
2022-11-03T02:50:51.728Z,87.45
2022-11-03T02:52:00.872Z,87.42
2022-11-03T02:53:04.831Z,87.33
2022-11-03T02:54:12.332Z,87.21
2022-11-03T02:55:19.438Z,87.09
2022-11-03T02:56:26.057Z,87.02
2022-11-03T02:57:30.699Z,87.02
2022-11-03T02:58:39.186Z,86.98
2022-11-03T02:59:44.699Z,87.17
2022-11-03T03:00:51.619Z,86.70
2022-11-03T03:01:56.995Z,87.17
2022-11-03T03:03:04.710Z,86.97
2022-11-03T03:04:10.168Z,87.26
2022-11-03T03:05:16.463Z,87.17
2022-11-03T03:06:24.064Z,87.19
2022-11-03T03:07:30.291Z,86.79
2022-11-03T03:08:33.503Z,86.52
2022-11-03T03:09:43.113Z,86.82
2022-11-03T03:10:47.283Z,87.05
2022-11-03T03:11:54.449Z,86.92
2022-11-03T03:12:58.604Z,87.36
2022-11-03T03:14:02.257Z,87.18
2022-11-03T03:15:08.329Z,86.72
2022-11-03T03:16:13.282Z,86.71
2022-11-03T03:17:21.012Z,86.93
2022-11-03T03:18:26.671Z,87.31
2022-11-03T03:19:39.443Z,87.70
2022-11-03T03:20:45.615Z,88.18
2022-11-03T03:21:51.161Z,88.56
2022-11-03T03:22:57.059Z,88.46
2022-11-03T03:24:04.633Z,88.54
2022-11-03T03:25:12.422Z,88.59
2022-11-03T03:26:21.635Z,88.53
2022-11-03T03:27:27.310Z,88.14
2022-11-03T03:28:34.153Z,88.28
2022-11-03T03:29:41.559Z,87.97
2022-11-03T03:30:46.891Z,87.96
2022-11-03T03:31:53.421Z,87.79
2022-11-03T03:32:58.282Z,88.18
2022-11-03T03:34:10.302Z,88.00
2022-11-03T03:35:22.142Z,87.68
2022-11-03T03:36:26.699Z,87.83
2022-11-03T03:37:31.902Z,87.36
2022-11-03T03:38:37.540Z,87.21
2022-11-03T03:39:42.481Z,87.38
2022-11-03T03:40:47.542Z,87.77
2022-11-03T03:41:51.401Z,87.21
2022-11-03T03:42:55.605Z,87.63
2022-11-03T03:44:00.982Z,88.20
2022-11-03T03:45:05.025Z,87.92
2022-11-03T03:46:09.542Z,87.73
2022-11-03T03:47:14.992Z,88.40
2022-11-03T03:48:19.425Z,88.41
2022-11-03T03:49:22.194Z,88.42
2022-11-03T03:50:26.330Z,88.72
2022-11-03T03:51:29.671Z,89.33
2022-11-03T03:52:36.121Z,89.56
2022-11-03T03:53:38.966Z,89.88
2022-11-03T03:54:42.802Z,89.93
2022-11-03T03:55:47.597Z,89.72
2022-11-03T03:56:55.558Z,89.64
2022-11-03T03:58:00.534Z,90.02
2022-11-03T03:59:04.880Z,90.21
2022-11-03T04:00:09.736Z,90.24
2022-11-03T04:01:16.200Z,90.13
2022-11-03T04:02:19.005Z,90.13
2022-11-03T04:03:24.537Z,90.02
2022-11-03T04:04:27.142Z,89.97
2022-11-03T04:05:30.876Z,90.05
2022-11-03T04:06:33.556Z,90.25
2022-11-03T04:07:49.150Z,90.58
2022-11-03T04:08:51.772Z,90.47
2022-11-03T04:09:55.557Z,90.45
2022-11-03T04:11:16.864Z,90.52
2022-11-03T04:12:37.844Z,90.84
2022-11-03T04:14:00.088Z,90.85
2022-11-03T04:15:21.210Z,90.77
2022-11-03T04:16:42.306Z,90.97
2022-11-03T04:18:05.871Z,91.12
2022-11-03T04:19:28.982Z,91.22
2022-11-03T04:20:50.107Z,91.69
2022-11-03T04:22:11.289Z,91.93
2022-11-03T04:23:15.157Z,91.95
2022-11-03T04:24:17.899Z,92.25
2022-11-03T04:25:21.559Z,92.44
2022-11-03T04:26:24.462Z,92.76
2022-11-03T04:27:31.121Z,92.84
2022-11-03T04:28:33.765Z,92.46
2022-11-03T04:29:38.919Z,92.62
2022-11-03T04:30:41.999Z,92.74
2022-11-03T04:31:46.187Z,92.77
2022-11-03T04:32:49.944Z,92.56
2022-11-03T04:33:53.577Z,92.83
2022-11-03T04:34:56.220Z,92.69
2022-11-03T04:36:01.007Z,93.32
2022-11-03T04:37:06.570Z,93.12
2022-11-03T04:38:21.479Z,93.38
2022-11-03T04:39:24.088Z,93.40
2022-11-03T04:40:28.120Z,93.21
2022-11-03T04:41:34.538Z,93.53
2022-11-03T04:42:37.242Z,93.63
2022-11-03T04:43:40.920Z,93.67
2022-11-03T04:44:45.176Z,93.95
2022-11-03T04:45:49.967Z,94.01
2022-11-03T04:46:54.507Z,94.14
2022-11-03T04:47:59.854Z,93.79
2022-11-03T04:49:02.617Z,93.88
2022-11-03T04:50:08.559Z,93.76
2022-11-03T04:51:15.575Z,94.03
2022-11-03T04:52:21.576Z,93.61
2022-11-03T04:53:24.599Z,93.90
2022-11-03T04:54:28.695Z,93.73
2022-11-03T04:55:31.338Z,93.81
2022-11-03T04:56:35.177Z,94.13
2022-11-03T04:57:37.871Z,94.27
2022-11-03T04:58:41.879Z,93.84
2022-11-03T04:59:48.798Z,94.02
2022-11-03T05:00:52.891Z,94.08
2022-11-03T05:01:57.226Z,94.51
2022-11-03T05:02:59.940Z,94.20
2022-11-03T05:04:03.649Z,93.79
2022-11-03T05:05:16.071Z,94.13
2022-11-03T05:06:24.027Z,94.05
2022-11-03T05:07:35.121Z,94.00
2022-11-03T05:08:37.838Z,94.09
2022-11-03T05:09:42.987Z,94.15
2022-11-03T05:10:46.509Z,94.13
2022-11-03T05:11:50.527Z,94.24
2022-11-03T05:12:54.331Z,94.02
2022-11-03T05:14:01.439Z,93.89
2022-11-03T05:15:11.408Z,93.94
2022-11-03T05:16:15.627Z,93.83
2022-11-03T05:17:24.539Z,93.94
2022-11-03T05:18:31.230Z,93.79
2022-11-03T05:19:34.849Z,93.31
2022-11-03T05:20:41.241Z,93.69
2022-11-03T05:21:44.956Z,93.27
2022-11-03T05:22:47.550Z,92.81
2022-11-03T05:23:54.307Z,92.77
2022-11-03T05:24:59.019Z,92.72
2022-11-03T05:26:03.668Z,93.18
2022-11-03T05:27:09.756Z,92.44
2022-11-03T05:28:22.900Z,92.34
2022-11-03T05:29:28.162Z,92.31
2022-11-03T05:30:32.932Z,92.55
2022-11-03T05:31:38.599Z,92.27
2022-11-03T05:32:42.599Z,92.72
2022-11-03T05:33:47.796Z,92.46
2022-11-03T05:34:53.137Z,92.26
2022-11-03T05:35:57.178Z,92.17
2022-11-03T05:37:01.416Z,92.51
2022-11-03T05:38:07.570Z,91.92
2022-11-03T05:39:24.600Z,91.82
2022-11-03T05:40:27.519Z,92.00
2022-11-03T05:41:32.269Z,91.87
2022-11-03T05:42:37.137Z,91.90
2022-11-03T05:43:40.923Z,92.00
2022-11-03T05:44:44.816Z,91.97
2022-11-03T05:45:52.659Z,92.05
2022-11-03T05:46:55.464Z,92.05
2022-11-03T05:48:00.039Z,91.83
2022-11-03T05:49:04.067Z,91.56
2022-11-03T05:50:20.856Z,91.68
2022-11-03T05:51:25.885Z,91.72
2022-11-03T05:52:30.250Z,91.59
2022-11-03T05:53:36.468Z,91.50
2022-11-03T05:54:40.197Z,91.55
2022-11-03T05:55:43.220Z,91.74
2022-11-03T05:56:46.927Z,91.92
2022-11-03T05:57:49.529Z,91.99
2022-11-03T05:58:53.969Z,91.85
2022-11-03T05:59:56.940Z,92.18
2022-11-03T06:01:02.818Z,92.28
2022-11-03T06:02:12.782Z,92.39
2022-11-03T06:03:18.219Z,92.21
2022-11-03T06:04:24.584Z,92.19
2022-11-03T06:05:28.809Z,92.37
2022-11-03T06:06:36.617Z,92.65
2022-11-03T06:07:39.276Z,92.41
2022-11-03T06:08:45.891Z,92.40
2022-11-03T06:09:48.957Z,92.59
2022-11-03T06:10:54.839Z,92.68
2022-11-03T06:11:59.826Z,92.82
2022-11-03T06:13:07.183Z,93.14
2022-11-03T06:14:16.578Z,92.94
2022-11-03T06:15:29.478Z,93.13
2022-11-03T06:16:41.891Z,92.87
2022-11-03T06:17:44.498Z,93.22
2022-11-03T06:18:48.198Z,93.14
2022-11-03T06:19:53.241Z,93.37
2022-11-03T06:20:59.529Z,93.11
2022-11-03T06:22:07.155Z,93.67
2022-11-03T06:23:12.990Z,93.50
2022-11-03T06:24:17.958Z,93.88
2022-11-03T06:25:31.731Z,93.42
2022-11-03T06:26:34.379Z,93.46
2022-11-03T06:27:38.076Z,93.44
2022-11-03T06:28:41.956Z,93.60
2022-11-03T06:29:48.388Z,93.53
2022-11-03T06:30:52.322Z,93.90
2022-11-03T06:31:58.564Z,93.78
2022-11-03T06:33:02.678Z,93.90
2022-11-03T06:34:19.777Z,94.04
2022-11-03T06:35:23.462Z,94.34
2022-11-03T06:36:28.319Z,94.02
2022-11-03T06:37:33.765Z,94.26
2022-11-03T06:38:37.490Z,94.09
2022-11-03T06:39:40.207Z,94.09
2022-11-03T06:40:43.948Z,94.13
2022-11-03T06:41:46.646Z,94.50
2022-11-03T06:42:50.350Z,94.39
2022-11-03T06:43:54.582Z,94.04
2022-11-03T06:44:57.224Z,94.10
2022-11-03T06:46:02.957Z,94.31
2022-11-03T06:47:18.729Z,94.31
2022-11-03T06:48:25.197Z,94.54
2022-11-03T06:49:29.980Z,94.20
2022-11-03T06:50:34.376Z,94.39
2022-11-03T06:51:38.329Z,94.02
2022-11-03T06:52:45.352Z,94.50
2022-11-03T06:53:49.949Z,94.14
2022-11-03T06:54:56.209Z,94.29
2022-11-03T06:56:00.655Z,94.42
2022-11-03T06:57:03.319Z,94.63
2022-11-03T06:58:17.340Z,94.79
2022-11-03T06:59:20.475Z,94.98
2022-11-03T07:00:34.602Z,94.89
2022-11-03T07:01:39.150Z,95.18
2022-11-03T07:02:57.028Z,95.23
2022-11-03T07:04:02.537Z,95.75
2022-11-03T07:05:10.141Z,95.90
2022-11-03T07:06:16.808Z,96.17
2022-11-03T07:07:19.500Z,96.45
2022-11-03T07:08:25.295Z,96.68
2022-11-03T07:09:29.200Z,97.00
2022-11-03T07:10:33.303Z,97.22
2022-11-03T07:11:39.284Z,97.57
2022-11-03T07:12:42.290Z,97.92
2022-11-03T07:13:46.201Z,98.13
2022-11-03T07:14:49.864Z,98.62
2022-11-03T07:15:52.738Z,98.88
2022-11-03T07:16:58.076Z,99.09
2022-11-03T07:18:03.145Z,99.48
2022-11-03T07:19:09.138Z,99.64
2022-11-03T07:20:14.847Z,99.60
2022-11-03T07:21:33.529Z,99.90
2022-11-03T07:22:37.175Z,100.00
2022-11-03T07:23:42.128Z,100.00
2022-11-03T07:24:49.358Z,100.00
2022-11-03T07:25:54.760Z,100.00
2022-11-03T07:27:04.157Z,100.00
2022-11-03T07:28:07.007Z,100.00
2022-11-03T07:29:13.903Z,100.00
2022-11-03T07:30:21.374Z,100.00
2022-11-03T07:31:27.120Z,100.00
2022-11-03T07:32:31.760Z,100.00
2022-11-03T07:33:36.812Z,100.00
2022-11-03T07:34:40.515Z,100.00
2022-11-03T07:38:20.284Z,100.00
2022-11-03T07:39:24.047Z,100.00
2022-11-03T07:40:27.773Z,100.00
2022-11-03T07:41:35.036Z,100.00
2022-11-03T07:42:38.008Z,100.00
2022-11-03T07:43:43.690Z,99.83
2022-11-03T07:44:47.418Z,99.53
2022-11-03T07:45:50.754Z,100.00
2022-11-03T07:46:54.396Z,99.64
2022-11-03T07:48:00.461Z,100.00
2022-11-03T07:49:10.037Z,100.00
2022-11-03T07:50:15.621Z,99.74
2022-11-03T07:51:22.704Z,100.00
2022-11-03T07:52:27.665Z,100.00
2022-11-03T07:53:37.539Z,99.98
2022-11-03T07:54:41.295Z,100.00
2022-11-03T07:55:45.525Z,100.00
2022-11-03T07:56:52.268Z,100.00
2022-11-03T07:57:56.127Z,100.00
2022-11-03T07:59:02.549Z,100.00
2022-11-03T08:00:10.276Z,100.00
2022-11-03T08:01:26.025Z,100.00
2022-11-03T08:02:33.586Z,100.00
2022-11-03T08:03:42.941Z,100.00
2022-11-03T08:04:48.299Z,100.00
2022-11-03T08:05:51.053Z,100.00
2022-11-03T08:06:55.587Z,100.00
2022-11-03T08:07:58.248Z,100.00
2022-11-03T08:09:02.002Z,100.00
2022-11-03T08:10:07.018Z,100.00
2022-11-03T08:11:11.101Z,100.00
2022-11-03T08:12:13.844Z,100.00
2022-11-03T08:13:17.540Z,100.00
2022-11-03T08:14:21.211Z,100.00
2022-11-03T08:15:24.189Z,100.00
2022-11-03T08:16:28.020Z,100.00
2022-11-03T08:17:30.670Z,100.00
2022-11-03T08:18:34.417Z,100.00
2022-11-03T08:19:38.205Z,100.00
2022-11-03T08:20:42.289Z,100.00
2022-11-03T08:21:45.941Z,100.00
2022-11-03T08:23:04.940Z,100.00
2022-11-03T08:24:12.541Z,100.00
2022-11-03T08:25:15.327Z,100.00
2022-11-03T08:26:19.231Z,100.00
2022-11-03T08:27:23.050Z,100.00
2022-11-03T08:28:25.799Z,100.00
2022-11-03T08:29:29.620Z,100.00
2022-11-03T08:30:32.297Z,100.00
2022-11-03T08:31:36.010Z,100.00
2022-11-03T08:32:38.764Z,100.00
2022-11-03T08:33:42.592Z,100.00
2022-11-03T08:34:46.486Z,100.00
2022-11-03T08:35:51.689Z,100.00
2022-11-03T08:36:54.340Z,100.00
2022-11-03T08:37:58.129Z,100.00
2022-11-03T08:39:01.923Z,100.00
2022-11-03T08:40:05.281Z,100.00
2022-11-03T08:41:09.044Z,100.00
2022-11-03T08:42:11.869Z,99.92
2022-11-03T08:43:15.658Z,99.83
2022-11-03T08:44:19.577Z,99.96
2022-11-03T08:45:22.272Z,99.39
2022-11-03T08:46:26.128Z,99.39
2022-11-03T08:47:28.955Z,99.40
2022-11-03T08:48:32.654Z,99.24
2022-11-03T08:49:35.347Z,99.45
2022-11-03T08:50:39.250Z,99.16
2022-11-03T08:51:45.038Z,98.77
2022-11-03T08:52:47.980Z,98.98
2022-11-03T08:53:54.246Z,99.00
2022-11-03T08:56:10.306Z,98.12
2022-11-03T08:57:15.824Z,98.11
2022-11-03T08:58:19.521Z,98.09
2022-11-03T08:59:22.191Z,97.56
2022-11-03T09:00:25.916Z,97.65
2022-11-03T09:01:29.672Z,97.43
2022-11-03T09:02:32.524Z,97.59
2022-11-03T09:03:36.306Z,97.53
2022-11-03T09:04:39.000Z,97.07
2022-11-03T09:05:42.967Z,96.87
2022-11-03T09:06:47.067Z,97.17
2022-11-03T09:10:42.179Z,96.19
2022-11-03T09:11:45.278Z,96.06
2022-11-03T09:12:48.997Z,96.07
2022-11-03T09:13:51.677Z,96.07
2022-11-03T09:14:55.340Z,97.11
2022-11-03T09:15:58.049Z,97.86
2022-11-03T09:18:10.601Z,97.23
2022-11-03T09:19:13.501Z,97.70
2022-11-03T09:20:17.197Z,97.67
2022-11-03T09:21:19.830Z,96.61
2022-11-03T09:22:25.037Z,96.22
2022-11-03T09:23:28.730Z,96.33
2022-11-03T09:24:31.430Z,95.69
2022-11-03T09:25:35.179Z,93.97
2022-11-03T09:26:38.686Z,94.55
2022-11-03T09:27:42.597Z,93.83
2022-11-03T09:28:46.379Z,93.46
2022-11-03T09:30:11.617Z,91.66
2022-11-03T09:31:14.159Z,90.38
2022-11-03T09:32:23.038Z,91.67
2022-11-03T09:33:27.459Z,90.13
2022-11-03T09:34:30.568Z,90.22
2022-11-03T09:35:34.297Z,89.41
2022-11-03T09:36:37.021Z,89.74
2022-11-03T09:37:42.307Z,89.11
2022-11-03T09:38:45.181Z,89.41
2022-11-03T09:39:48.866Z,89.12
2022-11-03T09:40:52.689Z,89.39
2022-11-03T09:41:59.292Z,88.82
2022-11-03T09:43:03.357Z,89.08
2022-11-03T09:44:07.382Z,87.75
2022-11-03T09:45:12.203Z,87.84
2022-11-03T09:46:16.738Z,87.36
2022-11-03T09:47:25.296Z,87.75
2022-11-03T09:48:30.508Z,87.14
2022-11-03T09:49:35.107Z,86.56
2022-11-03T09:50:38.241Z,85.62
2022-11-03T09:51:43.209Z,86.39
2022-11-03T09:52:51.469Z,86.15
2022-11-03T09:53:56.928Z,84.82
2022-11-03T09:55:00.934Z,85.52
2022-11-03T09:56:03.639Z,85.89
2022-11-03T09:57:13.109Z,85.44
2022-11-03T09:58:17.801Z,86.08
2022-11-03T09:59:23.340Z,85.71
2022-11-03T10:00:27.576Z,85.81
2022-11-03T10:01:31.323Z,85.18
2022-11-03T10:02:39.016Z,81.88
2022-11-03T10:03:41.809Z,82.96
2022-11-03T10:04:45.700Z,81.98
2022-11-03T10:05:49.685Z,82.31
2022-11-03T10:06:52.419Z,81.63
2022-11-03T10:08:00.435Z,80.42
2022-11-03T10:09:03.197Z,79.69
2022-11-03T10:10:07.890Z,80.45
2022-11-03T10:11:11.879Z,79.33
2022-11-03T10:12:15.766Z,77.86
2022-11-03T10:13:30.784Z,78.30
2022-11-03T10:14:34.626Z,76.97
2022-11-03T10:15:37.339Z,76.45
2022-11-03T10:16:43.038Z,76.23
2022-11-03T10:17:47.558Z,75.66
2022-11-03T10:18:51.619Z,75.91
2022-11-03T10:19:58.228Z,74.62
2022-11-03T10:21:07.167Z,75.27
2022-11-03T10:22:09.979Z,74.95
2022-11-03T10:23:15.099Z,74.95
2022-11-03T10:24:18.975Z,73.99
2022-11-03T10:25:44.245Z,74.19
2022-11-03T10:26:48.128Z,74.81
2022-11-03T10:27:51.831Z,72.78
2022-11-03T10:28:59.519Z,73.65
2022-11-03T10:30:10.890Z,74.11
2022-11-03T10:31:21.534Z,74.24
2022-11-03T10:32:33.720Z,73.93
2022-11-03T10:33:39.337Z,73.87
2022-11-03T10:34:43.155Z,73.28
2022-11-03T10:35:45.827Z,73.55
2022-11-03T10:36:50.711Z,73.48
2022-11-03T10:37:53.549Z,73.20
2022-11-03T10:38:58.858Z,73.43
2022-11-03T10:40:01.491Z,73.57
2022-11-03T10:41:15.019Z,73.40
2022-11-03T10:42:23.199Z,72.68
2022-11-03T10:43:25.901Z,72.09
2022-11-03T10:44:30.299Z,72.22
2022-11-03T10:45:33.979Z,72.81
2022-11-03T10:46:50.818Z,72.19
2022-11-03T10:48:02.018Z,71.67
2022-11-03T10:50:24.119Z,71.72
2022-11-03T10:51:26.779Z,70.52
2022-11-03T10:52:31.511Z,69.97
2022-11-03T10:53:34.392Z,69.97
2022-11-03T10:54:39.610Z,69.93
2022-11-03T10:55:43.389Z,69.52
2022-11-03T10:56:48.339Z,69.40
2022-11-03T10:57:53.137Z,69.25
2022-11-03T11:00:09.644Z,69.41
2022-11-03T11:01:13.595Z,68.12
2022-11-03T11:02:18.739Z,68.08
2022-11-03T11:03:22.611Z,67.11
2022-11-03T11:04:25.401Z,67.09
2022-11-03T11:05:29.339Z,66.48
2022-11-03T11:06:33.100Z,66.06
2022-11-03T11:07:40.384Z,66.20
2022-11-03T11:08:43.189Z,65.83
2022-11-03T11:09:48.490Z,65.59
2022-11-03T11:10:52.369Z,65.56
2022-11-03T11:12:07.073Z,64.92
2022-11-03T11:13:29.020Z,64.83
2022-11-03T11:14:40.938Z,65.46
2022-11-03T11:15:46.277Z,65.33
2022-11-03T11:16:51.191Z,66.12
2022-11-03T11:17:54.918Z,65.12
2022-11-03T11:19:02.589Z,64.38
2022-11-03T11:20:37.620Z,63.13
2022-11-03T11:22:04.704Z,63.15
2022-11-03T11:23:44.808Z,62.81
2022-11-03T11:25:03.587Z,64.11
2022-11-03T11:26:12.223Z,63.41
2022-11-03T11:28:07.473Z,61.84
2022-11-03T11:29:44.782Z,59.68
2022-11-03T11:30:57.179Z,62.99
2022-11-03T11:32:00.929Z,63.57
2022-11-03T11:33:15.417Z,63.64
2022-11-03T11:34:40.685Z,62.25
2022-11-03T11:36:21.299Z,62.68
2022-11-03T11:37:34.560Z,63.60
2022-11-03T11:38:58.220Z,62.93
2022-11-03T11:40:04.191Z,62.91
2022-11-03T11:41:06.960Z,62.59
2022-11-03T11:42:14.732Z,62.54
2022-11-03T11:43:27.418Z,61.91
2022-11-03T11:44:59.091Z,61.65
2022-11-03T11:46:42.588Z,60.52
2022-11-03T11:47:52.257Z,61.49
2022-11-03T11:49:03.721Z,62.29
2022-11-03T11:50:28.214Z,61.19
2022-11-03T11:51:35.899Z,61.18
2022-11-03T11:52:42.880Z,60.96
2022-11-03T11:53:50.941Z,60.57
2022-11-03T11:54:57.249Z,60.34
2022-11-03T11:56:03.822Z,59.58
2022-11-03T11:57:17.661Z,58.40
2022-11-03T11:58:32.606Z,58.59
2022-11-03T11:59:36.391Z,58.96
2022-11-03T12:00:41.581Z,59.42
2022-11-03T12:01:45.395Z,58.53
2022-11-03T12:02:48.788Z,58.28
2022-11-03T12:03:53.811Z,58.32
2022-11-03T12:05:01.473Z,58.00
2022-11-03T12:06:05.370Z,58.29
2022-11-03T12:07:13.919Z,58.41
2022-11-03T12:08:21.439Z,58.25
2022-11-03T12:09:27.288Z,59.29
2022-11-03T12:10:31.603Z,58.72
2022-11-03T12:11:48.324Z,58.34
2022-11-03T12:12:51.947Z,58.61
2022-11-03T12:13:55.772Z,58.44
2022-11-03T12:14:58.541Z,57.74
2022-11-03T12:16:02.258Z,58.11
2022-11-03T12:17:34.306Z,56.86
2022-11-03T12:18:41.681Z,58.38
2022-11-03T12:19:48.547Z,57.79
2022-11-03T12:20:51.395Z,57.77
2022-11-03T12:21:55.957Z,58.44
2022-11-03T12:22:59.629Z,58.89
2022-11-03T12:24:02.275Z,58.60
2022-11-03T12:25:08.812Z,58.03
2022-11-03T12:26:19.799Z,57.86
2022-11-03T12:27:44.687Z,55.67
2022-11-03T12:28:48.352Z,57.30
2022-11-03T12:29:51.598Z,57.32
2022-11-03T12:30:55.347Z,56.75
2022-11-03T12:31:59.087Z,57.50
2022-11-03T12:33:02.854Z,57.13
2022-11-03T12:34:05.625Z,57.42
2022-11-03T12:35:11.330Z,57.66
2022-11-03T12:36:15.049Z,57.31
2022-11-03T12:37:17.799Z,56.87
2022-11-03T12:38:21.628Z,57.17
2022-11-03T12:39:24.289Z,57.35
2022-11-03T12:40:28.085Z,57.58
2022-11-03T12:41:30.749Z,57.68
2022-11-03T12:42:35.286Z,57.58
2022-11-03T12:43:40.500Z,57.34
2022-11-03T12:44:43.976Z,56.78
2022-11-03T12:45:47.937Z,57.03
2022-11-03T12:46:50.647Z,56.83
2022-11-03T12:47:54.327Z,56.90
2022-11-03T12:48:57.126Z,57.00
2022-11-03T12:50:00.952Z,56.58
2022-11-03T12:51:04.783Z,57.52
2022-11-03T12:52:08.750Z,56.81
2022-11-03T12:53:12.699Z,56.34
2022-11-03T12:54:15.369Z,56.02
2022-11-03T12:55:19.133Z,56.61
2022-11-03T12:56:21.839Z,55.62
2022-11-03T12:57:25.598Z,55.94
2022-11-03T12:58:29.335Z,55.53
2022-11-03T12:59:33.518Z,54.48
2022-11-03T13:00:37.307Z,54.93
2022-11-03T13:01:41.182Z,55.26
2022-11-03T13:02:44.129Z,54.97
2022-11-03T13:03:48.002Z,54.54
2022-11-03T13:04:50.679Z,55.35
2022-11-03T13:05:54.441Z,54.65
2022-11-03T13:06:57.202Z,54.28
2022-11-03T13:08:00.934Z,54.10
2022-11-03T13:09:04.748Z,53.59
2022-11-03T13:10:09.255Z,53.12
2022-11-03T13:11:27.037Z,51.56
2022-11-03T13:12:35.305Z,51.66
2022-11-03T13:13:39.149Z,51.38
2022-11-03T13:14:46.054Z,51.04
2022-11-03T13:15:53.222Z,51.64
2022-11-03T13:16:55.890Z,51.36
2022-11-03T13:18:12.865Z,50.85
2022-11-03T13:19:16.908Z,51.16
2022-11-03T13:20:20.725Z,51.07
2022-11-03T13:21:24.457Z,51.10
2022-11-03T13:22:28.177Z,50.85
2022-11-03T13:23:31.976Z,50.75
2022-11-03T13:24:34.717Z,51.27
2022-11-03T13:25:38.747Z,50.85
2022-11-03T13:26:41.748Z,50.97
2022-11-03T13:27:45.610Z,50.85
2022-11-03T13:28:49.616Z,50.67
2022-11-03T13:29:56.935Z,51.15
2022-11-03T13:31:01.092Z,50.56
2022-11-03T13:32:04.094Z,51.12
2022-11-03T13:33:08.061Z,50.73
2022-11-03T13:34:11.202Z,50.80
2022-11-03T13:35:15.142Z,51.33
2022-11-03T13:36:19.153Z,51.73
2022-11-03T13:37:23.256Z,51.53
2022-11-03T13:38:26.377Z,51.50
2022-11-03T13:39:30.315Z,52.00
2022-11-03T13:41:57.979Z,52.11
2022-11-03T13:43:00.627Z,52.29
2022-11-03T13:44:04.330Z,52.59
2022-11-03T13:45:11.106Z,52.25
2022-11-03T13:46:14.959Z,52.22
2022-11-03T13:47:17.737Z,52.84
2022-11-03T13:50:12.471Z,53.57
2022-11-03T13:51:12.319Z,53.80
2022-11-03T13:52:16.138Z,53.93
2022-11-03T13:56:07.810Z,54.38
2022-11-03T14:00:03.776Z,54.84
2022-11-03T14:01:17.863Z,55.16
2022-11-03T14:05:11.497Z,55.51
2022-11-03T14:06:14.422Z,56.06
2022-11-03T14:07:18.155Z,56.35
2022-11-03T14:08:20.820Z,56.36
2022-11-03T14:09:24.816Z,56.67
2022-11-03T14:10:28.568Z,56.64
2022-11-03T14:11:49.561Z,56.93
2022-11-03T14:12:52.217Z,57.13
2022-11-03T14:13:56.309Z,57.25
2022-11-03T14:15:00.103Z,57.19
2022-11-03T14:16:03.895Z,57.33
2022-11-03T14:17:08.089Z,57.08
2022-11-03T14:18:11.968Z,57.16
2022-11-03T14:19:14.615Z,57.33
2022-11-03T14:20:18.409Z,57.25
2022-11-03T14:21:21.218Z,57.12
2022-11-03T14:22:25.467Z,57.31
2022-11-03T14:23:28.098Z,57.09
2022-11-03T14:24:31.892Z,57.15
2022-11-03T14:25:35.657Z,57.08
2022-11-03T14:26:43.084Z,57.06
2022-11-03T14:27:47.214Z,56.91
2022-11-03T14:28:50.568Z,56.83
2022-11-03T14:29:54.299Z,56.87